sensor_id;sensor_type;location;lat;lon;timestamp;pressure;altitude;pressure_sealevel;temperature;humidity
53300;BME280;39187;48.476;8.310;2023-11-21T00:01:57;90647.38;;;4.49;100.00
53300;BME280;39187;48.476;8.310;2023-11-21T00:04:24;90657.06;;;4.11;100.00
53300;BME280;39187;48.476;8.310;2023-11-21T00:06:50;90644.09;;;4.41;100.00
53300;BME280;39187;48.476;8.310;2023-11-21T00:09:16;90641.56;;;4.24;100.00
53300;BME280;39187;48.476;8.310;2023-11-21T00:11:43;90633.13;;;3.91;100.00
53300;BME280;39187;48.476;8.310;2023-11-21T00:14:10;90624.69;;;4.18;100.00
53300;BME280;39187;48.476;8.310;2023-11-21T00:16:36;90628.00;;;4.29;100.00
53300;BME280;39187;48.476;8.310;2023-11-21T00:19:02;90626.94;;;4.19;100.00
53300;BME280;39187;48.476;8.310;2023-11-21T00:21:27;90627.59;;;4.30;100.00
53300;BME280;39187;48.476;8.310;2023-11-21T00:23:53;90619.34;;;4.28;100.00
53300;BME280;39187;48.476;8.310;2023-11-21T00:26:18;90628.75;;;4.26;100.00
53300;BME280;39187;48.476;8.310;2023-11-21T00:28:44;90620.00;;;4.36;100.00
53300;BME280;39187;48.476;8.310;2023-11-21T00:31:10;90623.41;;;4.36;100.00
53300;BME280;39187;48.476;8.310;2023-11-21T00:33:36;90617.66;;;4.49;100.00
53300;BME280;39187;48.476;8.310;2023-11-21T00:36:02;90627.22;;;4.32;100.00
53300;BME280;39187;48.476;8.310;2023-11-21T00:38:27;90614.94;;;4.15;100.00
53300;BME280;39187;48.476;8.310;2023-11-21T00:40:53;90629.69;;;4.50;100.00
53300;BME280;39187;48.476;8.310;2023-11-21T00:43:24;90624.16;;;4.37;100.00
53300;BME280;39187;48.476;8.310;2023-11-21T00:45:49;90621.53;;;4.37;100.00
53300;BME280;39187;48.476;8.310;2023-11-21T00:48:15;90635.34;;;4.48;100.00
53300;BME280;39187;48.476;8.310;2023-11-21T00:50:40;90636.09;;;4.52;100.00
53300;BME280;39187;48.476;8.310;2023-11-21T00:53:06;90636.19;;;4.38;100.00
53300;BME280;39187;48.476;8.310;2023-11-21T00:55:33;90631.56;;;4.53;100.00
53300;BME280;39187;48.476;8.310;2023-11-21T00:57:59;90636.47;;;4.51;100.00
53300;BME280;39187;48.476;8.310;2023-11-21T01:00:25;90634.06;;;4.22;100.00
53300;BME280;39187;48.476;8.310;2023-11-21T01:02:51;90620.94;;;4.15;100.00
53300;BME280;39187;48.476;8.310;2023-11-21T01:05:17;90632.81;;;4.37;100.00
53300;BME280;39187;48.476;8.310;2023-11-21T01:07:42;90639.44;;;4.56;100.00
53300;BME280;39187;48.476;8.310;2023-11-21T01:10:08;90636.56;;;4.36;100.00
53300;BME280;39187;48.476;8.310;2023-11-21T01:12:36;90633.59;;;4.31;100.00
53300;BME280;39187;48.476;8.310;2023-11-21T01:15:07;90633.94;;;4.36;100.00
53300;BME280;39187;48.476;8.310;2023-11-21T01:17:33;90638.78;;;4.45;100.00
53300;BME280;39187;48.476;8.310;2023-11-21T01:20:00;90630.81;;;4.52;100.00
53300;BME280;39187;48.476;8.310;2023-11-21T01:22:26;90625.66;;;4.38;100.00
53300;BME280;39187;48.476;8.310;2023-11-21T01:24:54;90628.19;;;4.49;100.00
53300;BME280;39187;48.476;8.310;2023-11-21T01:27:21;90626.25;;;4.60;100.00
53300;BME280;39187;48.476;8.310;2023-11-21T01:29:46;90628.53;;;4.54;100.00
53300;BME280;39187;48.476;8.310;2023-11-21T01:32:12;90631.94;;;4.51;100.00
53300;BME280;39187;48.476;8.310;2023-11-21T01:34:37;90625.09;;;4.61;100.00
53300;BME280;39187;48.476;8.310;2023-11-21T01:37:03;90619.91;;;4.50;100.00
53300;BME280;39187;48.476;8.310;2023-11-21T01:39:31;90620.56;;;4.61;100.00
53300;BME280;39187;48.476;8.310;2023-11-21T01:41:57;90612.47;;;4.38;100.00
53300;BME280;39187;48.476;8.310;2023-11-21T01:44:26;90621.78;;;4.50;100.00
53300;BME280;39187;48.476;8.310;2023-11-21T01:46:52;90616.88;;;4.52;100.00
53300;BME280;39187;48.476;8.310;2023-11-21T01:49:19;90622.53;;;4.54;100.00
53300;BME280;39187;48.476;8.310;2023-11-21T01:51:47;90617.19;;;4.61;100.00
53300;BME280;39187;48.476;8.310;2023-11-21T01:54:15;90618.66;;;4.62;100.00
53300;BME280;39187;48.476;8.310;2023-11-21T01:56:43;90618.94;;;4.74;100.00
53300;BME280;39187;48.476;8.310;2023-11-21T01:59:10;90612.25;;;4.63;100.00
53300;BME280;39187;48.476;8.310;2023-11-21T02:01:37;90618.97;;;4.71;100.00
53300;BME280;39187;48.476;8.310;2023-11-21T02:04:03;90619.09;;;4.57;100.00
53300;BME280;39187;48.476;8.310;2023-11-21T02:06:29;90616.50;;;4.53;100.00
53300;BME280;39187;48.476;8.310;2023-11-21T02:08:56;90609.63;;;4.22;100.00
53300;BME280;39187;48.476;8.310;2023-11-21T02:11:22;90617.75;;;4.41;100.00
53300;BME280;39187;48.476;8.310;2023-11-21T02:13:47;90625.59;;;4.45;100.00
53300;BME280;39187;48.476;8.310;2023-11-21T02:16:15;90619.13;;;4.53;100.00
53300;BME280;39187;48.476;8.310;2023-11-21T02:18:40;90628.13;;;4.56;100.00
53300;BME280;39187;48.476;8.310;2023-11-21T02:21:07;90622.97;;;4.45;100.00
53300;BME280;39187;48.476;8.310;2023-11-21T02:23:33;90608.59;;;4.53;100.00
53300;BME280;39187;48.476;8.310;2023-11-21T02:25:58;90611.31;;;4.42;100.00
53300;BME280;39187;48.476;8.310;2023-11-21T02:28:24;90622.59;;;4.47;100.00
53300;BME280;39187;48.476;8.310;2023-11-21T02:30:54;90612.25;;;4.63;100.00
53300;BME280;39187;48.476;8.310;2023-11-21T02:33:22;90615.69;;;4.60;100.00
53300;BME280;39187;48.476;8.310;2023-11-21T02:35:48;90617.00;;;4.41;100.00
53300;BME280;39187;48.476;8.310;2023-11-21T02:38:13;90614.75;;;4.36;100.00
53300;BME280;39187;48.476;8.310;2023-11-21T02:40:39;90611.84;;;4.23;100.00
53300;BME280;39187;48.476;8.310;2023-11-21T02:43:05;90617.31;;;4.47;100.00
53300;BME280;39187;48.476;8.310;2023-11-21T02:45:31;90620.28;;;4.49;100.00
53300;BME280;39187;48.476;8.310;2023-11-21T02:47:57;90616.91;;;4.48;100.00
53300;BME280;39187;48.476;8.310;2023-11-21T02:50:23;90622.16;;;4.48;100.00
53300;BME280;39187;48.476;8.310;2023-11-21T02:52:49;90619.03;;;4.64;100.00
53300;BME280;39187;48.476;8.310;2023-11-21T02:55:15;90612.75;;;4.54;100.00
53300;BME280;39187;48.476;8.310;2023-11-21T02:57:41;90610.50;;;4.49;100.00
53300;BME280;39187;48.476;8.310;2023-11-21T03:00:07;90603.31;;;4.53;100.00
53300;BME280;39187;48.476;8.310;2023-11-21T03:02:33;90599.56;;;4.51;100.00
53300;BME280;39187;48.476;8.310;2023-11-21T03:05:02;90599.56;;;4.54;100.00
53300;BME280;39187;48.476;8.310;2023-11-21T03:07:27;90596.50;;;4.59;100.00
53300;BME280;39187;48.476;8.310;2023-11-21T03:09:53;90596.13;;;4.57;100.00
53300;BME280;39187;48.476;8.310;2023-11-21T03:12:19;90595.53;;;4.39;100.00
53300;BME280;39187;48.476;8.310;2023-11-21T03:14:45;90598.13;;;4.46;100.00
53300;BME280;39187;48.476;8.310;2023-11-21T03:17:10;90596.72;;;4.34;100.00
53300;BME280;39187;48.476;8.310;2023-11-21T03:19:36;90589.81;;;4.03;100.00
53300;BME280;39187;48.476;8.310;2023-11-21T03:22:02;90601.66;;;4.29;100.00
53300;BME280;39187;48.476;8.310;2023-11-21T03:24:29;90600.22;;;4.21;100.00
53300;BME280;39187;48.476;8.310;2023-11-21T03:26:55;90591.22;;;4.15;100.00
53300;BME280;39187;48.476;8.310;2023-11-21T03:29:21;90605.66;;;4.44;100.00
53300;BME280;39187;48.476;8.310;2023-11-21T03:31:47;90597.16;;;4.26;100.00
53300;BME280;39187;48.476;8.310;2023-11-21T03:34:23;90604.69;;;4.24;100.00
53300;BME280;39187;48.476;8.310;2023-11-21T03:36:48;90601.44;;;4.06;100.00
53300;BME280;39187;48.476;8.310;2023-11-21T03:39:14;90600.44;;;4.37;100.00
53300;BME280;39187;48.476;8.310;2023-11-21T03:41:40;90604.19;;;4.39;100.00
53300;BME280;39187;48.476;8.310;2023-11-21T03:44:05;90603.94;;;4.27;100.00
53300;BME280;39187;48.476;8.310;2023-11-21T03:46:31;90604.69;;;4.27;100.00
53300;BME280;39187;48.476;8.310;2023-11-21T03:48:56;90609.88;;;4.34;100.00
53300;BME280;39187;48.476;8.310;2023-11-21T03:51:22;90604.25;;;4.32;100.00
53300;BME280;39187;48.476;8.310;2023-11-21T03:53:47;90603.13;;;4.33;100.00
53300;BME280;39187;48.476;8.310;2023-11-21T03:56:14;90605.66;;;4.48;100.00
53300;BME280;39187;48.476;8.310;2023-11-21T03:58:39;90597.31;;;4.49;100.00
53300;BME280;39187;48.476;8.310;2023-11-21T04:01:05;90608.28;;;4.44;100.00
53300;BME280;39187;48.476;8.310;2023-11-21T04:03:31;90606.66;;;4.61;100.00
53300;BME280;39187;48.476;8.310;2023-11-21T04:05:56;90623.22;;;4.58;100.00
53300;BME280;39187;48.476;8.310;2023-11-21T04:08:22;90617.19;;;4.61;100.00
53300;BME280;39187;48.476;8.310;2023-11-21T04:10:48;90615.00;;;4.52;100.00
53300;BME280;39187;48.476;8.310;2023-11-21T04:13:14;90616.28;;;4.33;100.00
53300;BME280;39187;48.476;8.310;2023-11-21T04:15:39;90621.63;;;4.26;100.00
53300;BME280;39187;48.476;8.310;2023-11-21T04:18:05;90620.44;;;4.34;100.00
53300;BME280;39187;48.476;8.310;2023-11-21T04:20:30;90618.03;;;4.51;100.00
53300;BME280;39187;48.476;8.310;2023-11-21T04:22:56;90631.53;;;4.56;100.00
53300;BME280;39187;48.476;8.310;2023-11-21T04:25:22;90624.69;;;4.66;100.00
53300;BME280;39187;48.476;8.310;2023-11-21T04:27:48;90625.97;;;4.47;100.00
53300;BME280;39187;48.476;8.310;2023-11-21T04:30:15;90630.91;;;4.41;100.00
53300;BME280;39187;48.476;8.310;2023-11-21T04:32:41;90632.84;;;4.34;100.00
53300;BME280;39187;48.476;8.310;2023-11-21T04:35:08;90634.28;;;4.42;100.00
53300;BME280;39187;48.476;8.310;2023-11-21T04:37:36;90637.38;;;4.33;100.00
53300;BME280;39187;48.476;8.310;2023-11-21T04:40:02;90635.06;;;4.39;100.00
53300;BME280;39187;48.476;8.310;2023-11-21T04:42:35;90638.88;;;4.31;100.00
53300;BME280;39187;48.476;8.310;2023-11-21T04:45:05;90643.66;;;4.47;100.00
53300;BME280;39187;48.476;8.310;2023-11-21T04:47:34;90650.63;;;4.19;100.00
53300;BME280;39187;48.476;8.310;2023-11-21T04:50:00;90640.00;;;4.30;100.00
53300;BME280;39187;48.476;8.310;2023-11-21T04:52:25;90647.25;;;4.19;100.00
53300;BME280;39187;48.476;8.310;2023-11-21T04:54:51;90646.81;;;4.27;100.00
53300;BME280;39187;48.476;8.310;2023-11-21T04:57:20;90642.97;;;4.39;100.00
53300;BME280;39187;48.476;8.310;2023-11-21T04:59:45;90637.41;;;4.26;100.00
53300;BME280;39187;48.476;8.310;2023-11-21T05:02:11;90643.84;;;4.22;100.00
53300;BME280;39187;48.476;8.310;2023-11-21T05:04:37;90636.34;;;4.17;100.00
53300;BME280;39187;48.476;8.310;2023-11-21T05:07:03;90638.63;;;4.11;100.00
53300;BME280;39187;48.476;8.310;2023-11-21T05:09:28;90639.34;;;4.22;100.00
53300;BME280;39187;48.476;8.310;2023-11-21T05:11:57;90640.13;;;4.16;100.00
53300;BME280;39187;48.476;8.310;2023-11-21T05:14:23;90636.78;;;4.08;100.00
53300;BME280;39187;48.476;8.310;2023-11-21T05:16:48;90633.69;;;4.20;100.00
53300;BME280;39187;48.476;8.310;2023-11-21T05:19:17;90641.59;;;4.17;100.00
53300;BME280;39187;48.476;8.310;2023-11-21T05:21:42;90648.72;;;4.23;100.00
53300;BME280;39187;48.476;8.310;2023-11-21T05:24:08;90640.00;;;4.30;100.00
53300;BME280;39187;48.476;8.310;2023-11-21T05:26:34;90644.66;;;4.12;100.00
53300;BME280;39187;48.476;8.310;2023-11-21T05:29:00;90646.63;;;4.00;100.00
53300;BME280;39187;48.476;8.310;2023-11-21T05:31:26;90649.31;;;3.90;100.00
53300;BME280;39187;48.476;8.310;2023-11-21T05:33:52;90650.25;;;4.17;100.00
53300;BME280;39187;48.476;8.310;2023-11-21T05:36:18;90652.69;;;3.94;100.00
53300;BME280;39187;48.476;8.310;2023-11-21T05:38:44;90663.13;;;4.08;100.00
53300;BME280;39187;48.476;8.310;2023-11-21T05:41:09;90662.81;;;3.95;100.00
53300;BME280;39187;48.476;8.310;2023-11-21T05:43:39;90665.81;;;3.97;100.00
53300;BME280;39187;48.476;8.310;2023-11-21T05:46:05;90670.34;;;3.93;100.00
53300;BME280;39187;48.476;8.310;2023-11-21T05:48:32;90672.94;;;3.97;100.00
53300;BME280;39187;48.476;8.310;2023-11-21T05:50:58;90684.53;;;4.10;100.00
53300;BME280;39187;48.476;8.310;2023-11-21T05:53:24;90683.06;;;4.09;100.00
53300;BME280;39187;48.476;8.310;2023-11-21T05:55:50;90682.28;;;4.16;100.00
53300;BME280;39187;48.476;8.310;2023-11-21T05:58:16;90678.19;;;4.04;100.00
53300;BME280;39187;48.476;8.310;2023-11-21T06:00:41;90679.31;;;4.07;100.00
53300;BME280;39187;48.476;8.310;2023-11-21T06:03:07;90675.88;;;4.13;100.00
53300;BME280;39187;48.476;8.310;2023-11-21T06:05:33;90680.00;;;4.14;100.00
53300;BME280;39187;48.476;8.310;2023-11-21T06:07:59;90678.44;;;4.24;100.00
53300;BME280;39187;48.476;8.310;2023-11-21T06:10:26;90676.25;;;4.15;100.00
53300;BME280;39187;48.476;8.310;2023-11-21T06:12:52;90683.88;;;3.95;100.00
53300;BME280;39187;48.476;8.310;2023-11-21T06:15:18;90678.53;;;4.10;100.00
53300;BME280;39187;48.476;8.310;2023-11-21T06:17:48;90690.19;;;4.12;100.00
53300;BME280;39187;48.476;8.310;2023-11-21T06:20:18;90690.25;;;3.98;100.00
53300;BME280;39187;48.476;8.310;2023-11-21T06:22:48;90690.97;;;4.09;100.00
53300;BME280;39187;48.476;8.310;2023-11-21T06:25:14;90699.59;;;4.13;100.00
53300;BME280;39187;48.476;8.310;2023-11-21T06:27:44;90705.28;;;4.01;100.00
53300;BME280;39187;48.476;8.310;2023-11-21T06:30:11;90703.00;;;4.07;100.00
53300;BME280;39187;48.476;8.310;2023-11-21T06:32:38;90708.66;;;4.05;100.00
53300;BME280;39187;48.476;8.310;2023-11-21T06:35:05;90713.13;;;4.15;100.00
53300;BME280;39187;48.476;8.310;2023-11-21T06:37:32;90711.63;;;4.14;100.00
53300;BME280;39187;48.476;8.310;2023-11-21T06:39:59;90707.84;;;4.12;100.00
53300;BME280;39187;48.476;8.310;2023-11-21T06:42:25;90710.50;;;4.15;100.00
53300;BME280;39187;48.476;8.310;2023-11-21T06:44:51;90706.31;;;4.18;100.00
53300;BME280;39187;48.476;8.310;2023-11-21T06:47:20;90710.44;;;4.19;100.00
53300;BME280;39187;48.476;8.310;2023-11-21T06:49:46;90705.19;;;4.22;100.00
53300;BME280;39187;48.476;8.310;2023-11-21T06:52:14;90707.09;;;4.15;100.00
53300;BME280;39187;48.476;8.310;2023-11-21T06:54:40;90707.88;;;4.08;100.00
53300;BME280;39187;48.476;8.310;2023-11-21T06:57:05;90710.50;;;4.12;100.00
53300;BME280;39187;48.476;8.310;2023-11-21T06:59:31;90719.56;;;4.07;100.00
53300;BME280;39187;48.476;8.310;2023-11-21T07:01:57;90719.13;;;4.16;100.00
53300;BME280;39187;48.476;8.310;2023-11-21T07:04:22;90712.38;;;4.15;100.00
53300;BME280;39187;48.476;8.310;2023-11-21T07:06:49;90725.53;;;4.15;100.00
53300;BME280;39187;48.476;8.310;2023-11-21T07:09:15;90725.53;;;4.15;100.00
53300;BME280;39187;48.476;8.310;2023-11-21T07:11:41;90726.25;;;4.19;100.00
53300;BME280;39187;48.476;8.310;2023-11-21T07:14:06;90726.72;;;3.99;100.00
53300;BME280;39187;48.476;8.310;2023-11-21T07:16:35;90734.56;;;4.14;100.00
53300;BME280;39187;48.476;8.310;2023-11-21T07:19:05;90742.09;;;4.15;100.00
53300;BME280;39187;48.476;8.310;2023-11-21T07:21:34;90744.31;;;4.20;100.00
53300;BME280;39187;48.476;8.310;2023-11-21T07:24:02;90743.19;;;4.18;100.00
53300;BME280;39187;48.476;8.310;2023-11-21T07:26:27;90742.06;;;4.19;100.00
53300;BME280;39187;48.476;8.310;2023-11-21T07:28:53;90745.53;;;3.98;100.00
53300;BME280;39187;48.476;8.310;2023-11-21T07:31:19;90749.53;;;4.24;100.00
53300;BME280;39187;48.476;8.310;2023-11-21T07:33:46;90755.16;;;4.33;100.00
53300;BME280;39187;48.476;8.310;2023-11-21T07:36:15;90749.50;;;4.34;100.00
53300;BME280;39187;48.476;8.310;2023-11-21T07:38:41;90758.53;;;4.33;100.00
53300;BME280;39187;48.476;8.310;2023-11-21T07:41:07;90755.16;;;4.29;100.00
53300;BME280;39187;48.476;8.310;2023-11-21T07:43:35;90760.38;;;4.36;100.00
53300;BME280;39187;48.476;8.310;2023-11-21T07:46:04;90755.91;;;4.33;100.00
53300;BME280;39187;48.476;8.310;2023-11-21T07:48:30;90765.34;;;4.27;100.00
53300;BME280;39187;48.476;8.310;2023-11-21T07:50:57;90771.38;;;4.24;100.00
53300;BME280;39187;48.476;8.310;2023-11-21T07:53:27;90772.78;;;4.43;100.00
53300;BME280;39187;48.476;8.310;2023-11-21T07:55:56;90778.06;;;4.39;100.00
53300;BME280;39187;48.476;8.310;2023-11-21T07:58:21;90776.16;;;4.43;100.00
53300;BME280;39187;48.476;8.310;2023-11-21T08:00:47;90774.31;;;4.37;100.00
53300;BME280;39187;48.476;8.310;2023-11-21T08:03:16;90781.44;;;4.43;100.00
53300;BME280;39187;48.476;8.310;2023-11-21T08:05:42;90778.00;;;4.54;100.00
53300;BME280;39187;48.476;8.310;2023-11-21T08:08:08;90784.03;;;4.54;100.00
53300;BME280;39187;48.476;8.310;2023-11-21T08:10:34;90777.63;;;4.48;100.00
53300;BME280;39187;48.476;8.310;2023-11-21T08:13:02;90777.25;;;4.50;100.00
53300;BME280;39187;48.476;8.310;2023-11-21T08:15:29;90779.47;;;4.58;100.00
53300;BME280;39187;48.476;8.310;2023-11-21T08:17:54;90778.03;;;4.47;100.00
53300;BME280;39187;48.476;8.310;2023-11-21T08:20:20;90786.25;;;4.56;100.00
53300;BME280;39187;48.476;8.310;2023-11-21T08:22:47;90782.81;;;4.62;100.00
53300;BME280;39187;48.476;8.310;2023-11-21T08:25:13;90785.91;;;4.54;100.00
53300;BME280;39187;48.476;8.310;2023-11-21T08:27:39;90793.06;;;4.53;100.00
53300;BME280;39187;48.476;8.310;2023-11-21T08:30:05;90788.91;;;4.49;100.00
53300;BME280;39187;48.476;8.310;2023-11-21T08:32:31;90793.38;;;4.62;100.00
53300;BME280;39187;48.476;8.310;2023-11-21T08:35:01;90789.22;;;4.61;100.00
53300;BME280;39187;48.476;8.310;2023-11-21T08:37:27;90795.16;;;4.76;100.00
53300;BME280;39187;48.476;8.310;2023-11-21T08:39:57;90797.78;;;4.76;100.00
53300;BME280;39187;48.476;8.310;2023-11-21T08:42:23;90801.91;;;4.80;100.00
53300;BME280;39187;48.476;8.310;2023-11-21T08:44:48;90800.38;;;4.83;100.00
53300;BME280;39187;48.476;8.310;2023-11-21T08:47:14;90805.69;;;4.79;100.00
53300;BME280;39187;48.476;8.310;2023-11-21T08:49:39;90804.25;;;4.68;100.00
53300;BME280;39187;48.476;8.310;2023-11-21T08:52:05;90809.56;;;4.64;100.00
53300;BME280;39187;48.476;8.310;2023-11-21T08:54:32;90802.69;;;4.74;100.00
53300;BME280;39187;48.476;8.310;2023-11-21T08:56:57;90802.66;;;4.84;100.00
53300;BME280;39187;48.476;8.310;2023-11-21T08:59:26;90799.69;;;4.75;100.00
53300;BME280;39187;48.476;8.310;2023-11-21T09:01:52;90803.94;;;4.59;100.00
53300;BME280;39187;48.476;8.310;2023-11-21T09:04:17;90802.41;;;4.61;100.00
53300;BME280;39187;48.476;8.310;2023-11-21T09:06:43;90808.00;;;4.70;100.00
53300;BME280;39187;48.476;8.310;2023-11-21T09:09:08;90808.31;;;4.83;100.00
53300;BME280;39187;48.476;8.310;2023-11-21T09:11:36;90812.59;;;4.59;100.00
53300;BME280;39187;48.476;8.310;2023-11-21T09:14:02;90812.56;;;4.66;100.00
53300;BME280;39187;48.476;8.310;2023-11-21T09:16:31;90820.78;;;4.75;100.00
53300;BME280;39187;48.476;8.310;2023-11-21T09:18:57;90826.72;;;4.87;100.00
53300;BME280;39187;48.476;8.310;2023-11-21T09:21:22;90828.91;;;4.99;100.00
53300;BME280;39187;48.476;8.310;2023-11-21T09:23:48;90830.75;;;5.05;100.00
53300;BME280;39187;48.476;8.310;2023-11-21T09:26:14;90835.25;;;5.12;100.00
53300;BME280;39187;48.476;8.310;2023-11-21T09:28:43;90837.06;;;5.18;100.00
53300;BME280;39187;48.476;8.310;2023-11-21T09:31:11;90846.44;;;5.23;100.00
53300;BME280;39187;48.476;8.310;2023-11-21T09:33:37;90847.91;;;5.31;100.00
53300;BME280;39187;48.476;8.310;2023-11-21T09:36:04;90838.75;;;5.43;100.00
53300;BME280;39187;48.476;8.310;2023-11-21T09:38:30;90849.47;;;5.21;100.00
53300;BME280;39187;48.476;8.310;2023-11-21T09:40:56;90849.72;;;5.38;100.00
53300;BME280;39187;48.476;8.310;2023-11-21T09:43:24;90848.19;;;5.44;100.00
53300;BME280;39187;48.476;8.310;2023-11-21T09:45:58;90841.50;;;5.29;100.00
53300;BME280;39187;48.476;8.310;2023-11-21T09:48:26;90860.53;;;5.54;100.00
53300;BME280;39187;48.476;8.310;2023-11-21T09:50:53;90854.13;;;5.55;100.00
53300;BME280;39187;48.476;8.310;2023-11-21T09:53:20;90858.53;;;5.65;100.00
53300;BME280;39187;48.476;8.310;2023-11-21T09:55:48;90859.72;;;5.57;100.00
53300;BME280;39187;48.476;8.310;2023-11-21T09:58:17;90854.06;;;5.58;100.00
53300;BME280;39187;48.476;8.310;2023-11-21T10:00:45;90856.66;;;5.65;100.00
53300;BME280;39187;48.476;8.310;2023-11-21T10:03:11;90862.28;;;5.68;100.00
53300;BME280;39187;48.476;8.310;2023-11-21T10:05:39;90866.06;;;5.67;100.00
53300;BME280;39187;48.476;8.310;2023-11-21T10:08:07;90872.03;;;5.74;100.00
53300;BME280;39187;48.476;8.310;2023-11-21T10:10:35;90867.84;;;5.77;100.00
53300;BME280;39187;48.476;8.310;2023-11-21T10:13:04;90866.00;;;5.74;100.00
53300;BME280;39187;48.476;8.310;2023-11-21T10:15:34;90873.50;;;5.79;100.00
53300;BME280;39187;48.476;8.310;2023-11-21T10:18:05;90872.28;;;5.90;100.00
53300;BME280;39187;48.476;8.310;2023-11-21T10:20:32;90874.81;;;6.04;100.00
53300;BME280;39187;48.476;8.310;2023-11-21T10:23:03;90870.22;;;6.09;100.00
53300;BME280;39187;48.476;8.310;2023-11-21T10:25:32;90864.88;;;6.16;100.00
53300;BME280;39187;48.476;8.310;2023-11-21T10:27:59;90862.59;;;6.18;100.00
53300;BME280;39187;48.476;8.310;2023-11-21T10:30:36;90859.78;;;5.98;100.00
53300;BME280;39187;48.476;8.310;2023-11-21T10:33:04;90866.94;;;5.97;100.00
53300;BME280;39187;48.476;8.310;2023-11-21T10:35:44;90871.03;;;6.06;100.00
53300;BME280;39187;48.476;8.310;2023-11-21T10:38:19;90866.34;;;6.20;100.00
53300;BME280;39187;48.476;8.310;2023-11-21T10:40:46;90867.41;;;6.26;100.00
53300;BME280;39187;48.476;8.310;2023-11-21T10:43:13;90863.84;;;6.06;100.00
53300;BME280;39187;48.476;8.310;2023-11-21T10:45:41;90864.88;;;6.16;100.00
53300;BME280;39187;48.476;8.310;2023-11-21T10:48:14;90869.06;;;6.13;100.00
53300;BME280;39187;48.476;8.310;2023-11-21T10:50:46;90866.06;;;6.11;100.00
53300;BME280;39187;48.476;8.310;2023-11-21T10:53:12;90869.38;;;6.19;100.00
53300;BME280;39187;48.476;8.310;2023-11-21T10:55:39;90868.63;;;6.18;100.00
53300;BME280;39187;48.476;8.310;2023-11-21T10:58:05;90876.91;;;6.20;100.00
53300;BME280;39187;48.476;8.310;2023-11-21T11:00:32;90873.59;;;6.13;100.00
53300;BME280;39187;48.476;8.310;2023-11-21T11:02:59;90864.16;;;6.12;100.00
53300;BME280;39187;48.476;8.310;2023-11-21T11:05:29;90877.31;;;6.19;100.00
53300;BME280;39187;48.476;8.310;2023-11-21T11:08:08;90871.84;;;5.95;100.00
53300;BME280;39187;48.476;8.310;2023-11-21T11:10:37;90878.91;;;6.09;100.00
53300;BME280;39187;48.476;8.310;2023-11-21T11:13:04;90873.22;;;6.14;100.00
53300;BME280;39187;48.476;8.310;2023-11-21T11:15:32;90877.66;;;6.21;100.00
53300;BME280;39187;48.476;8.310;2023-11-21T11:17:59;90884.84;;;6.20;100.00
53300;BME280;39187;48.476;8.310;2023-11-21T11:20:36;90883.34;;;6.19;100.00
53300;BME280;39187;48.476;8.310;2023-11-21T11:26:32;90884.72;;;6.31;100.00
53300;BME280;39187;48.476;8.310;2023-11-21T11:32:01;90888.88;;;6.32;100.00
53300;BME280;39187;48.476;8.310;2023-11-21T11:34:35;90882.47;;;6.29;100.00
53300;BME280;39187;48.476;8.310;2023-11-21T11:37:06;90883.91;;;6.37;100.00
53300;BME280;39187;48.476;8.310;2023-11-21T11:39:40;90878.88;;;6.47;100.00
53300;BME280;39187;48.476;8.310;2023-11-21T11:42:15;90881.88;;;6.49;100.00
53300;BME280;39187;48.476;8.310;2023-11-21T11:47:27;90886.66;;;6.27;100.00
53300;BME280;39187;48.476;8.310;2023-11-21T11:50:08;90889.78;;;6.15;100.00
53300;BME280;39187;48.476;8.310;2023-11-21T11:52:52;90884.34;;;6.29;100.00
53300;BME280;39187;48.476;8.310;2023-11-21T11:55:21;90883.22;;;6.30;100.00
53300;BME280;39187;48.476;8.310;2023-11-21T11:57:50;90880.31;;;6.21;100.00
53300;BME280;39187;48.476;8.310;2023-11-21T12:03:00;90882.78;;;6.35;100.00
53300;BME280;39187;48.476;8.310;2023-11-21T12:05:32;90887.59;;;6.43;100.00
53300;BME280;39187;48.476;8.310;2023-11-21T12:08:05;90890.22;;;6.10;100.00
53300;BME280;39187;48.476;8.310;2023-11-21T12:10:34;90898.63;;;5.97;100.00
53300;BME280;39187;48.476;8.310;2023-11-21T12:13:01;90894.41;;;6.07;100.00
53300;BME280;39187;48.476;8.310;2023-11-21T12:15:28;90889.63;;;6.29;100.00
53300;BME280;39187;48.476;8.310;2023-11-21T12:17:57;90886.47;;;6.41;100.00
53300;BME280;39187;48.476;8.310;2023-11-21T12:20:26;90890.19;;;6.47;100.00
53300;BME280;39187;48.476;8.310;2023-11-21T12:22:58;90893.91;;;6.53;100.00
53300;BME280;39187;48.476;8.310;2023-11-21T12:25:28;90892.94;;;6.40;100.00
53300;BME280;39187;48.476;8.310;2023-11-21T12:27:55;90902.63;;;6.50;100.00
53300;BME280;39187;48.476;8.310;2023-11-21T12:30:23;90892.44;;;6.49;100.00
53300;BME280;39187;48.476;8.310;2023-11-21T12:32:53;90900.94;;;6.33;100.00
53300;BME280;39187;48.476;8.310;2023-11-21T12:35:20;90895.59;;;6.40;100.00
53300;BME280;39187;48.476;8.310;2023-11-21T12:37:46;90900.88;;;6.40;100.00
53300;BME280;39187;48.476;8.310;2023-11-21T12:40:13;90901.69;;;6.33;100.00
53300;BME280;39187;48.476;8.310;2023-11-21T12:42:47;90902.16;;;6.25;100.00
53300;BME280;39187;48.476;8.310;2023-11-21T12:47:47;90909.75;;;6.19;100.00
53300;BME280;39187;48.476;8.310;2023-11-21T12:50:14;90902.41;;;6.34;100.00
53300;BME280;39187;48.476;8.310;2023-11-21T12:52:41;90906.72;;;6.21;100.00
53300;BME280;39187;48.476;8.310;2023-11-21T12:55:07;90909.72;;;6.23;100.00
53300;BME280;39187;48.476;8.310;2023-11-21T12:57:35;90907.06;;;6.23;100.00
53300;BME280;39187;48.476;8.310;2023-11-21T13:00:04;90904.00;;;5.87;100.00
53300;BME280;39187;48.476;8.310;2023-11-21T13:02:37;90910.38;;;5.93;100.00
53300;BME280;39187;48.476;8.310;2023-11-21T13:05:04;90912.75;;;5.77;100.00
53300;BME280;39187;48.476;8.310;2023-11-21T13:07:41;90915.69;;;5.86;100.00
53300;BME280;39187;48.476;8.310;2023-11-21T13:10:12;90914.19;;;5.85;100.00
53300;BME280;39187;48.476;8.310;2023-11-21T13:12:43;90922.16;;;5.81;100.00
53300;BME280;39187;48.476;8.310;2023-11-21T13:15:14;90919.19;;;5.76;100.00